Portada
METAR-TAF:

METAR-TAF

Aeroports :

Uberaba, Minas Gerais, Brasil

latitud: 19-47S, longitud: 047-58W, altitud: 807 m

Observació

L'informe es va fer fa 1 hora i 54 minuts, a les 20:00 UTC
Vent 2 kt del Est/Nord-Est
Temperatura 26°C
Humitat 23%
Pressió 1023 hPa
Visibilitat 10 km o més
sense núvols per sota de 1500 mi sense presència de cumulonimbus.

METAR: SBUR 072000Z 07002KT CAVOK 26/03 Q1023

Hora: 18:54 (21:54 UTC)

Pronòstic

L'informe es va fer fa 5 hores i 42 minuts, a les 16:12 UTC
Pronòstic vàlid del 07 a les 18 UTC al 08 a les 06 UTC
Vent 8 kt del Est/Nord-Est
Visibilitat 10 km o més
Evolucionant progressivament
l' 07 a les 19 UTC al 07 a les 21 UTC
Vent 4 kt del Est
Visibilitat 10 km o més
sense núvols per sota de 1500 mi sense presència de cumulonimbus.
Evolucionant progressivament
l' 08 a les 03 UTC al 08 a les 05 UTC
Vent 7 kt del Nord-Est

TAF: SBUR 071612Z 0718/0806 06008KT 9999 FEW045TX27/0718Z TN16/0805Z BECMG 0719/0721 09004KT CAVOK BECMG 0803/0805 05007KT RMK PGO

Observacions i pronòstics meteorològics de més de 4000 aeroports (METAR i TAF).

Les estacions disponibles són els punts grocs i vermells al mapa.

Posi el ratolí al punt desitjat per veure el nom de l'estació.

Feu clic per veure les observacions i els pronòstics meteorològics.

Per canviar el mapa: feu clic els botons verds amb una creu de color negre per apropar; al botó verd amb un guió per allunyar la imatge; o en les fletxes verdes per a mapes adjacents.


METAR-TAF: